Time;durP1;ratioP1;P1;durP2;ratioP2;P2;SDS_P1;SDS_P2;PMS_P1;PMS_P2;Temp;Humidity;BMP_temperature;BMP_pressure;BME280_temperature;BME280_humidity;BME280_pressure;Samples;Min_cycle;Max_cycle;Signal;HPM_P1;HPM_P2
2022/05/08 00:02:12;;;;;;;15.88;4.47;;;;;;;;;;5056057;28;20397;-58
2022/05/08 00:04:38;;;;;;;18.85;4.65;;;;;;;;;;5073955;28;20040;-58
2022/05/08 00:07:04;;;;;;;20.65;5.20;;;;;;;;;;5056337;28;20044;-58
2022/05/08 00:09:30;;;;;;;18.45;4.15;;;;;;;;;;5056605;28;20127;-58
2022/05/08 00:11:56;;;;;;;21.05;5.30;;;;;;;;;;5073272;28;20483;-58
2022/05/08 00:14:22;;;;;;;16.92;4.70;;;;;;;;;;5055979;28;20044;-58
2022/05/08 00:16:49;;;;;;;14.13;4.97;;;;;;;;;;5074192;28;20564;-58
2022/05/08 00:19:15;;;;;;;17.83;3.75;;;;;;;;;;5055354;28;20063;-58
2022/05/08 00:21:41;;;;;;;16.42;4.65;;;;;;;;;;5073880;28;20477;-58
2022/05/08 00:24:07;;;;;;;17.52;4.18;;;;;;;;;;5073744;28;20067;-58
2022/05/08 00:26:33;;;;;;;21.42;5.50;;;;;;;;;;5073374;28;20076;-58
2022/05/08 00:28:59;;;;;;;14.38;4.78;;;;;;;;;;5073678;28;20401;-58
2022/05/08 00:31:25;;;;;;;12.68;4.88;;;;;;;;;;5055702;28;20048;-58
2022/05/08 00:33:51;;;;;;;20.33;5.15;;;;;;;;;;5072789;28;20408;-58
2022/05/08 00:36:18;;;;;;;15.43;4.28;;;;;;;;;;5073428;28;20167;-58
2022/05/08 00:38:45;;;;;;;13.82;4.10;;;;;;;;;;5055942;28;20485;-57
2022/05/08 00:41:11;;;;;;;12.75;3.92;;;;;;;;;;5054500;28;20117;-57
2022/05/08 00:43:38;;;;;;;20.17;4.28;;;;;;;;;;5055812;28;20052;-58
2022/05/08 00:46:05;;;;;;;17.38;5.03;;;;;;;;;;5055585;28;20044;-58
2022/05/08 00:48:32;;;;;;;15.75;4.20;;;;;;;;;;5071626;28;20453;-58
2022/05/08 00:50:58;;;;;;;15.57;5.05;;;;;;;;;;5073380;28;20106;-58
2022/05/08 00:53:26;;;;;;;14.85;4.70;;;;;;;;;;5073479;28;20040;-58
2022/05/08 00:55:52;;;;;;;15.18;4.60;;;;;;;;;;5072486;28;20040;-58
2022/05/08 00:58:20;;;;;;;12.88;4.10;;;;;;;;;;5073009;28;20094;-58
2022/05/08 01:00:46;;;;;;;13.02;4.13;;;;;;;;;;5073392;28;20044;-57
2022/05/08 01:03:12;;;;;;;9.10;4.22;;;;;;;;;;5071905;28;20033;-58
2022/05/08 01:05:41;;;;;;;14.20;3.97;;;;;;;;;;5073214;28;20102;-58
2022/05/08 01:08:08;;;;;;;19.33;4.22;;;;;;;;;;5037126;28;20044;-58
2022/05/08 01:10:35;;;;;;;15.93;4.25;;;;;;;;;;5073227;28;20393;-58
2022/05/08 01:13:01;;;;;;;17.50;4.32;;;;;;;;;;5054831;28;20052;-58
2022/05/08 01:15:29;;;;;;;13.27;4.18;;;;;;;;;;5053842;28;20485;-58
2022/05/08 01:17:55;;;;;;;14.95;3.95;;;;;;;;;;5055085;28;20048;-58
2022/05/08 01:20:22;;;;;;;15.88;4.32;;;;;;;;;;5072783;28;20041;-58
2022/05/08 01:22:48;;;;;;;13.93;3.42;;;;;;;;;;5054451;28;20037;-58
2022/05/08 01:25:14;;;;;;;17.75;5.07;;;;;;;;;;5072686;28;20405;-58
2022/05/08 01:27:40;;;;;;;21.42;4.03;;;;;;;;;;5072951;28;20054;-58
2022/05/08 01:30:06;;;;;;;16.48;3.95;;;;;;;;;;5053434;28;20093;-58
2022/05/08 01:32:32;;;;;;;22.50;5.07;;;;;;;;;;5072696;28;20463;-58
2022/05/08 01:34:58;;;;;;;12.75;4.50;;;;;;;;;;5072578;28;20054;-58
2022/05/08 01:37:24;;;;;;;12.50;4.07;;;;;;;;;;5053749;28;20478;-58
2022/05/08 01:39:50;;;;;;;14.90;4.65;;;;;;;;;;5072436;28;20040;-58
2022/05/08 01:42:16;;;;;;;14.18;3.47;;;;;;;;;;5072231;28;20082;-58
2022/05/08 01:44:42;;;;;;;16.80;3.72;;;;;;;;;;5053969;28;20406;-58
2022/05/08 01:49:53;;;;;;;20.50;3.53;;;;;;;;;;5072479;28;20045;-58
2022/05/08 01:52:19;;;;;;;15.15;4.28;;;;;;;;;;5071515;28;20477;-57
2022/05/08 01:54:45;;;;;;;9.80;3.65;;;;;;;;;;5054316;28;20103;-58
2022/05/08 01:57:11;;;;;;;13.55;4.10;;;;;;;;;;5071027;28;20119;-58
2022/05/08 01:59:37;;;;;;;12.35;3.90;;;;;;;;;;5071801;28;20142;-58
2022/05/08 02:02:03;;;;;;;12.27;4.05;;;;;;;;;;5054223;28;20067;-57
2022/05/08 02:04:29;;;;;;;14.45;3.80;;;;;;;;;;5053315;28;20056;-58
2022/05/08 02:06:55;;;;;;;10.43;4.13;;;;;;;;;;5054224;28;20044;-57
2022/05/08 02:09:21;;;;;;;13.55;3.92;;;;;;;;;;5071906;28;20150;-57
2022/05/08 02:11:47;;;;;;;12.38;3.28;;;;;;;;;;5071408;28;20129;-58
2022/05/08 02:14:13;;;;;;;16.15;4.55;;;;;;;;;;5053516;28;20072;-57
2022/05/08 02:16:39;;;;;;;12.55;3.90;;;;;;;;;;5072326;28;20084;-57
2022/05/08 02:19:05;;;;;;;16.27;4.10;;;;;;;;;;5070868;28;20141;-58
2022/05/08 02:21:31;;;;;;;14.50;5.05;;;;;;;;;;5037698;28;20083;-58
2022/05/08 02:23:57;;;;;;;13.27;4.20;;;;;;;;;;5053788;28;20069;-58
2022/05/08 02:26:23;;;;;;;15.80;4.53;;;;;;;;;;5070936;28;20149;-57
2022/05/08 02:28:50;;;;;;;13.45;3.53;;;;;;;;;;5071951;28;20043;-58
2022/05/08 02:31:16;;;;;;;13.55;4.07;;;;;;;;;;5072020;28;20068;-58
2022/05/08 02:33:42;;;;;;;13.30;3.55;;;;;;;;;;5053298;28;20036;-57
2022/05/08 02:36:09;;;;;;;9.95;3.70;;;;;;;;;;5071346;28;20037;-58
2022/05/08 02:38:35;;;;;;;12.05;3.80;;;;;;;;;;5054000;28;20102;-57
2022/05/08 02:41:01;;;;;;;11.38;4.22;;;;;;;;;;5070916;28;20041;-58
2022/05/08 02:43:27;;;;;;;10.38;3.50;;;;;;;;;;5053656;28;20120;-58
2022/05/08 02:45:59;;;;;;;15.88;3.65;;;;;;;;;;5071673;28;20123;-58
2022/05/08 02:48:25;;;;;;;9.93;3.78;;;;;;;;;;5070881;28;20052;-58
2022/05/08 02:50:51;;;;;;;13.55;3.80;;;;;;;;;;5071681;28;20033;-58
2022/05/08 02:53:17;;;;;;;9.77;3.28;;;;;;;;;;5071396;28;20094;-58
2022/05/08 02:58:37;;;;;;;15.32;3.10;;;;;;;;;;5053698;28;20040;-58
2022/05/08 03:01:06;;;;;;;10.88;3.72;;;;;;;;;;5070959;28;20037;-58
2022/05/08 03:03:32;;;;;;;14.52;3.83;;;;;;;;;;5071833;28;20036;-58
2022/05/08 03:05:58;;;;;;;10.05;3.35;;;;;;;;;;5053740;28;20485;-58
2022/05/08 03:08:24;;;;;;;9.63;2.95;;;;;;;;;;5052621;28;20047;-58
2022/05/08 03:13:36;;;;;;;13.47;3.53;;;;;;;;;;5057731;28;20040;-58
2022/05/08 03:16:02;;;;;;;9.38;3.78;;;;;;;;;;5056289;28;20044;-58
2022/05/08 03:18:29;;;;;;;10.30;2.65;;;;;;;;;;5057503;28;20045;-58
2022/05/08 03:20:54;;;;;;;9.68;2.53;;;;;;;;;;5056935;28;20481;-57
2022/05/08 03:23:20;;;;;;;8.15;2.95;;;7.10;99.90;;;;;;5056160;28;20074;-58
2022/05/08 03:25:46;;;;;;;7.45;2.75;;;7.00;99.90;;;;;;5075068;28;20037;-58
2022/05/08 03:28:15;;;;;;;8.88;2.95;;;7.00;99.90;;;;;;5074587;28;20072;-58
2022/05/08 03:30:41;;;;;;;9.15;3.17;;;6.90;99.90;;;;;;5056572;28;20075;-58
2022/05/08 03:33:08;;;;;;;8.02;3.00;;;6.80;99.90;;;;;;5039969;28;20051;-58
2022/05/08 03:35:35;;;;;;;15.48;3.42;;;6.80;99.90;;;;;;5074640;28;20393;-58
2022/05/08 03:38:00;;;;;;;8.70;2.70;;;6.80;99.90;;;;;;5074386;28;20072;-58
2022/05/08 03:40:26;;;;;;;7.00;2.30;;;6.70;99.90;;;;;;5074598;28;20121;-58
2022/05/08 03:42:53;;;;;;;10.10;2.80;;;6.70;99.90;;;;;;5055933;28;20045;-58
2022/05/08 03:45:19;;;;;;;7.80;3.03;;;6.70;99.90;;;;;;5056821;28;20070;-58
2022/05/08 03:47:44;;;;;;;11.30;2.25;;;6.70;99.90;;;;;;5074896;28;20516;-58
2022/05/08 03:50:10;;;;;;;8.57;2.85;;;6.70;99.90;;;;;;5055629;28;20040;-58
2022/05/08 03:52:36;;;;;;;8.55;3.65;;;6.70;99.90;;;;;;5074793;28;20105;-58
2022/05/08 03:55:05;;;;;;;6.35;2.30;;;6.70;99.90;;;;;;5074320;28;20481;-58
2022/05/08 03:57:31;;;;;;;15.90;2.58;;;6.70;99.90;;;;;;5056253;28;20054;-58
2022/05/08 03:59:56;;;;;;;12.02;3.72;;;6.70;99.90;;;;;;5056467;28;20125;-58
2022/05/08 04:02:22;;;;;;;7.68;2.50;;;6.60;99.90;;;;;;5056563;28;20068;-58
2022/05/08 04:04:48;;;;;;;6.97;2.42;;;6.60;99.90;;;;;;5073788;28;20517;-58
2022/05/08 04:07:13;;;;;;;6.95;2.25;;;6.60;99.90;;;;;;5056390;28;20513;-58
2022/05/08 04:09:39;;;;;;;7.60;3.20;;;6.60;99.90;;;;;;5074615;28;20563;-58
2022/05/08 04:12:05;;;;;;;6.97;2.72;;;6.50;99.90;;;;;;5073534;28;20115;-58
2022/05/08 04:14:31;;;;;;;12.48;2.90;;;6.50;99.90;;;;;;5056279;28;20036;-57
2022/05/08 04:16:56;;;;;;;11.52;2.92;;;6.50;99.90;;;;;;5055936;28;20055;-58
2022/05/08 04:19:22;;;;;;;10.48;3.13;;;6.50;99.90;;;;;;5073323;28;20036;-57
2022/05/08 04:21:47;;;;;;;7.13;2.42;;;6.50;99.90;;;;;;5074065;28;20481;-58
2022/05/08 04:24:19;;;;;;;8.68;2.67;;;6.60;99.90;;;;;;5073934;28;20079;-58
2022/05/08 04:26:47;;;;;;;7.82;2.92;;;6.60;99.90;;;;;;5055529;28;20036;-57
2022/05/08 04:29:13;;;;;;;6.72;2.47;;;6.60;99.90;;;;;;5073486;28;20392;-58
2022/05/08 04:31:39;;;;;;;7.07;2.60;;;6.60;99.90;;;;;;5056075;28;20128;-58
2022/05/08 04:34:05;;;;;;;12.00;2.63;;;6.70;99.90;;;;;;5072694;28;20036;-58
2022/05/08 04:36:31;;;;;;;9.43;2.65;;;6.90;99.90;;;;;;5074060;28;20039;-58
2022/05/08 04:38:56;;;;;;;11.90;2.67;;;6.80;99.90;;;;;;5055247;28;20040;-58
2022/05/08 04:41:22;;;;;;;8.18;2.35;;;6.80;99.90;;;;;;5055726;28;20448;-58
2022/05/08 04:43:47;;;;;;;8.40;2.67;;;6.80;99.90;;;;;;5073831;28;20036;-58
2022/05/08 04:46:13;;;;;;;6.30;2.40;;;6.80;99.90;;;;;;5054814;28;20079;-58
2022/05/08 04:48:42;;;;;;;7.50;2.72;;;6.90;99.90;;;;;;5073521;28;20477;-58
2022/05/08 04:51:08;;;;;;;9.10;2.95;;;6.90;99.90;;;;;;5073191;28;20167;-58
2022/05/08 04:53:33;;;;;;;8.38;2.63;;;7.00;99.90;;;;;;5072674;28;20119;-57
2022/05/08 04:55:59;;;;;;;9.10;2.55;;;7.00;99.90;;;;;;5073211;28;20040;-58
2022/05/08 04:58:29;;;;;;;7.05;2.22;;;7.10;99.90;;;;;;5073196;28;20513;-58
2022/05/08 05:00:57;;;;;;;6.15;2.55;;;7.10;99.90;;;;;;5072299;28;20033;-58
2022/05/08 05:03:24;;;;;;;10.25;2.80;;;7.10;99.90;;;;;;5073029;28;20047;-57
2022/05/08 05:05:50;;;;;;;9.35;2.60;;;7.10;99.90;;;;;;5072984;28;20515;-58
2022/05/08 05:08:15;;;;;;;7.07;2.50;;;7.20;99.90;;;;;;5054215;28;20044;-57
2022/05/08 05:10:41;;;;;;;8.40;2.53;;;7.30;99.90;;;;;;5073264;28;20040;-57
2022/05/08 05:13:07;;;;;;;7.13;1.98;;;7.30;99.90;;;;;;5054718;28;20041;-58
2022/05/08 05:15:32;;;;;;;8.65;3.30;;;7.40;99.90;;;;;;5071971;28;20052;-58
2022/05/08 05:18:01;;;;;;;10.38;2.97;;;7.50;99.90;;;;;;5055074;28;20048;-58
2022/05/08 05:20:27;;;;;;;9.65;2.70;;;7.60;99.90;;;;;;5054951;28;20367;-58
2022/05/08 05:22:53;;;;;;;10.10;2.42;;;7.70;99.90;;;;;;5072140;28;20133;-58
2022/05/08 05:25:18;;;;;;;8.68;3.08;;;7.80;99.90;;;;;;5072648;28;20547;-58
2022/05/08 05:27:45;;;;;;;10.68;3.55;;;7.90;99.90;;;;;;5038526;28;20124;-58
2022/05/08 05:30:11;;;;;;;7.38;2.35;;;;;;;;;;5071368;28;20055;-58
2022/05/08 05:32:39;;;;;;;10.98;3.10;;;;;;;;;;5072857;28;20057;-58
2022/05/08 05:35:05;;;;;;;7.90;2.30;;;;;;;;;;5053658;28;20379;-58
2022/05/08 05:37:31;;;;;;;9.13;2.47;;;;;;;;;;5072150;28;20036;-58
2022/05/08 05:39:58;;;;;;;8.80;2.85;;;;;;;;;;5037887;28;20048;-58
2022/05/08 05:42:24;;;;;;;9.55;2.50;;;;;;;;;;5036932;28;20477;-58
2022/05/08 05:44:49;;;;;;;7.65;1.90;;;;;;;;;;5054687;28;20063;-58
2022/05/08 05:50:00;;;;;;;6.47;2.40;;;;;;;;;;5053661;28;20078;-57
2022/05/08 05:52:27;;;;;;;12.55;2.88;;;;;;;;;;5038021;28;20084;-58
2022/05/08 05:54:56;;;;;;;7.47;2.60;;;;;;;;;;5072034;28;20044;-58
2022/05/08 05:57:23;;;;;;;7.28;2.03;;;;;;;;;;5053688;28;20075;-58
2022/05/08 05:59:49;;;;;;;9.65;2.20;;;9.60;99.90;;;;;;5054244;28;20055;-58
2022/05/08 06:02:18;;;;;;;7.10;1.95;;;;;;;;;;5072196;28;20036;-58
2022/05/08 06:04:47;;;;;;;10.27;2.22;;;;;;;;;;5053869;28;20048;-58
2022/05/08 06:07:16;;;;;;;8.10;2.25;;;;;;;;;;5071680;28;20063;-58
2022/05/08 06:09:45;;;;;;;9.50;2.13;;;;;;;;;;5072149;28;20040;-58
2022/05/08 06:12:13;;;;;;;9.65;2.55;;;;;;;;;;5070953;28;20044;-58
2022/05/08 06:14:41;;;;;;;8.38;2.22;;;;;;;;;;5054469;28;20093;-58
2022/05/08 06:17:07;;;;;;;8.70;2.25;;;;;;;;;;5071464;28;20052;-58
2022/05/08 06:19:33;;;;;;;8.70;2.10;;;;;;;;;;5053560;28;20098;-58
2022/05/08 06:22:00;;;;;;;5.97;2.78;;;;;;;;;;5037275;28;20056;-58
2022/05/08 06:24:26;;;;;;;9.48;2.55;;;;;;;;;;5071213;28;20075;-58
2022/05/08 06:26:51;;;;;;;10.55;2.65;;;11.10;99.90;;;;;;5054004;28;20040;-58
2022/05/08 06:29:17;;;;;;;8.68;2.28;;;11.10;99.90;;;;;;5053901;28;20036;-58
2022/05/08 06:31:46;;;;;;;11.38;2.78;;;11.20;99.90;;;;;;5071213;28;20044;-58
2022/05/08 06:34:12;;;;;;;8.07;2.17;;;11.10;99.90;;;;;;5071488;28;20457;-58
2022/05/08 06:36:38;;;;;;;8.35;2.40;;;11.00;99.90;;;;;;5071962;28;20041;-58
2022/05/08 06:39:03;;;;;;;10.05;2.17;;;10.80;99.90;;;;;;5071240;28;20059;-58
2022/05/08 06:41:29;;;;;;;9.73;2.25;;;10.60;99.90;;;;;;5053611;28;20401;-58
2022/05/08 06:43:55;;;;;;;7.72;2.42;;;10.60;99.90;;;;;;5053527;28;20041;-58
2022/05/08 06:46:21;;;;;;;7.45;2.42;;;10.70;99.90;;;;;;5074149;28;20497;-58
2022/05/08 06:48:49;;;;;;;11.35;2.63;;;10.90;99.90;;;;;;5058025;28;20125;-59
2022/05/08 06:51:15;;;;;;;7.97;2.08;;;11.10;99.90;;;;;;5040973;28;20045;-59
2022/05/08 06:53:43;;;;;;;7.32;1.90;;;11.30;99.90;;;;;;5075296;28;20044;-59
2022/05/08 06:56:13;;;;;;;7.07;2.00;;;11.50;99.90;;;;;;5075205;28;20059;-59
2022/05/08 07:01:38;;;;;;;;;;;11.60;99.90;;;;;;5052377;28;20509;-60
2022/05/08 07:04:07;;;;;;;11.77;3.50;;;11.50;99.90;;;;;;5072154;28;20316;-60
2022/05/08 07:06:37;;;;;;;6.72;1.83;;;11.40;99.90;;;;;;5059849;28;20044;-60
2022/05/08 07:09:03;;;;;;;9.05;2.30;;;11.50;99.90;;;;;;5072814;28;20551;-60
2022/05/08 07:11:32;;;;;;;11.13;2.35;;;11.70;99.90;;;;;;5072845;28;20044;-60
2022/05/08 07:14:01;;;;;;;10.10;2.45;;;11.40;99.90;;;;;;5053828;28;20177;-59
2022/05/08 07:16:27;;;;;;;9.50;2.38;;;11.30;99.90;;;;;;5072319;28;20512;-60
2022/05/08 07:18:53;;;;;;;10.02;2.10;;;11.20;99.90;;;;;;5073067;28;20044;-60
2022/05/08 07:21:19;;;;;;;9.45;2.35;;;11.00;99.90;;;;;;5071106;28;20500;-60
2022/05/08 07:23:48;;;;;;;9.23;3.15;;;10.80;99.90;;;;;;5054769;28;20478;-60
2022/05/08 07:26:14;;;;;;;5.50;2.00;;;11.50;99.90;;;;;;5054626;28;20543;-60
2022/05/08 07:28:41;;;;;;;11.40;3.08;;;10.60;99.90;;;;;;5037735;28;20393;-60
2022/05/08 07:31:06;;;;;;;15.98;3.08;;;10.20;99.90;;;;;;5072694;28;20467;-60
2022/05/08 07:33:35;;;;;;;8.57;2.22;;;10.50;99.90;;;;;;5072974;28;20135;-60
2022/05/08 07:36:14;;;;;;;10.85;2.20;;;10.40;99.90;;;;;;5063742;28;20041;-59
2022/05/08 07:38:45;;;;;;;9.80;2.33;;;10.50;99.90;;;;;;5056676;28;20037;-60
2022/05/08 07:41:12;;;;;;;10.02;2.50;;;10.60;99.90;;;;;;5070115;28;20389;-60
2022/05/08 07:43:39;;;;;;;8.77;2.45;;;10.80;99.90;;;;;;5047362;28;20051;-60
2022/05/08 07:46:05;;;;;;;6.95;1.98;;;11.00;99.90;;;;;;5039183;28;20048;-60
2022/05/08 07:48:32;;;;;;;10.68;3.25;;;11.10;99.90;;;;;;5058841;28;20040;-60
2022/05/08 07:50:59;;;;;;;6.00;2.03;;;11.10;99.90;;;;;;5066183;28;20052;-60
2022/05/08 07:53:27;;;;;;;7.88;2.33;;;11.10;99.90;;;;;;5033298;28;20119;-60
2022/05/08 07:55:52;;;;;;;11.95;3.40;;;11.00;99.90;;;;;;5056068;28;20056;-60
2022/05/08 07:58:19;;;;;;;10.88;2.50;;;11.00;99.90;;;;;;5037382;28;20052;-60
2022/05/08 08:00:45;;;;;;;10.07;2.83;;;11.10;99.90;;;;;;5068665;28;20037;-60
2022/05/08 08:03:10;;;;;;;10.70;3.25;;;11.10;99.90;;;;;;5064185;28;20041;-60
2022/05/08 08:05:36;;;;;;;9.75;2.38;;;11.20;99.90;;;;;;5022612;28;20053;-60
2022/05/08 08:08:02;;;;;;;9.73;2.30;;;11.20;99.90;;;;;;5046164;28;20048;-60
2022/05/08 08:10:29;;;;;;;10.30;2.47;;;11.20;99.90;;;;;;5035892;28;20374;-60
2022/05/08 08:12:56;;;;;;;7.97;2.20;;;11.20;99.90;;;;;;5050393;28;20062;-60
2022/05/08 08:15:22;;;;;;;10.70;2.63;;;11.20;99.90;;;;;;5048941;28;20047;-60
2022/05/08 08:17:48;;;;;;;8.77;2.35;;;11.20;99.90;;;;;;5064798;28;20060;-60
2022/05/08 08:20:14;;;;;;;13.02;2.65;;;11.20;99.90;;;;;;5070198;28;20040;-60
2022/05/08 08:22:39;;;;;;;9.90;2.58;;;11.10;99.90;;;;;;5054331;28;20051;-60
2022/05/08 08:25:06;;;;;;;8.95;2.42;;;11.00;99.90;;;;;;5046527;28;20051;-60
2022/05/08 08:27:32;;;;;;;6.75;2.03;;;11.10;99.90;;;;;;5042125;28;20044;-60
2022/05/08 08:29:59;;;;;;;11.27;2.83;;;11.20;99.90;;;;;;5040551;28;20069;-60
2022/05/08 08:32:25;;;;;;;14.60;2.60;;;11.40;99.90;;;;;;5055023;28;20195;-60
2022/05/08 08:34:53;;;;;;;9.80;2.60;;;11.60;99.90;;;;;;5060212;28;20383;-60
2022/05/08 08:37:18;;;;;;;11.07;3.10;;;11.70;99.90;;;;;;5056938;28;20504;-60
2022/05/08 08:39:44;;;;;;;9.90;2.58;;;12.00;99.90;;;;;;5065636;28;20036;-61
2022/05/08 08:42:23;;;;;;;12.02;3.00;;;11.80;99.90;;;;;;5049590;28;20052;-59
2022/05/08 08:47:49;;;;;;;9.13;2.00;;;12.00;99.90;;;;;;5037953;28;20378;-59
2022/05/08 08:50:17;;;;;;;6.45;2.25;;;12.00;99.90;;;;;;5037669;28;20106;-58
2022/05/08 08:52:43;;;;;;;12.05;3.13;;;11.90;99.90;;;;;;5049052;28;20166;-58
2022/05/08 08:55:09;;;;;;;10.05;2.65;;;12.10;99.90;;;;;;5056013;28;20059;-58
2022/05/08 08:57:35;;;;;;;11.38;3.20;;;12.10;99.90;;;;;;5064839;28;20037;-58
2022/05/08 09:00:01;;;;;;;8.43;2.45;;;12.20;99.90;;;;;;5056749;28;20099;-58
2022/05/08 09:02:27;;;;;;;9.02;2.53;;;12.20;99.90;;;;;;5066229;28;20048;-58
2022/05/08 09:04:54;;;;;;;9.15;2.08;;;12.30;99.90;;;;;;5062547;28;20036;-59
2022/05/08 09:07:49;;;;;;;7.80;2.45;;;12.30;99.90;;;;;;5055719;28;20505;-59
2022/05/08 09:10:27;;;;;;;9.52;2.83;;;12.40;99.90;;;;;;5046198;28;20121;-59
2022/05/08 09:12:53;;;;;;;15.73;3.05;;;12.50;99.90;;;;;;5066863;28;20048;-59
2022/05/08 09:15:30;;;;;;;8.57;2.42;;;12.60;99.90;;;;;;5056690;28;20033;-61
2022/05/08 09:17:59;;;;;;;7.90;2.83;;;12.80;99.90;;;;;;5058575;28;20053;-58
2022/05/08 09:20:32;;;;;;;8.82;2.05;;;12.80;99.90;;;;;;5051750;28;20056;-59
2022/05/08 09:22:58;;;;;;;8.52;2.05;;;12.80;99.90;;;;;;5045040;28;20110;-59
2022/05/08 09:25:23;;;;;;;8.43;2.75;;;13.00;99.90;;;;;;5062157;28;20437;-59
2022/05/08 09:28:02;;;;;;;10.55;2.42;;;12.70;99.90;;;;;;5060629;28;20497;-59
2022/05/08 09:30:27;;;;;;;13.35;3.63;;;12.70;99.90;;;;;;5068728;28;20044;-59
2022/05/08 09:32:53;;;;;;;10.60;3.03;;;13.30;99.90;;;;;;5051650;28;20511;-59
2022/05/08 09:35:19;;;;;;;8.45;2.40;;;12.70;99.90;;;;;;5069266;28;20040;-59
2022/05/08 09:37:52;;;;;;;6.13;2.42;;;12.90;99.90;;;;;;5041740;28;20047;-59
2022/05/08 09:40:20;;;;;;;7.90;2.75;;;12.70;99.90;;;;;;5061976;28;20351;-58
2022/05/08 09:42:46;;;;;;;9.38;2.65;;;12.70;99.90;;;;;;5052487;28;20033;-59
2022/05/08 09:45:12;;;;;;;10.23;2.88;;;12.70;99.90;;;;;;5063741;28;20051;-59
2022/05/08 09:47:48;;;;;;;7.07;2.28;;;12.60;99.90;;;;;;5045040;28;20131;-59
2022/05/08 09:50:16;;;;;;;8.45;2.08;;;12.60;99.90;;;;;;5068429;28;20068;-58
2022/05/08 09:52:43;;;;;;;9.00;3.65;;;12.60;99.90;;;;;;5035549;28;20055;-59
2022/05/08 09:55:10;;;;;;;17.52;5.90;;;12.80;99.90;;;;;;5068594;28;20526;-58
2022/05/08 09:57:36;;;;;;;8.63;2.67;;;12.90;99.90;;;;;;5051685;28;20216;-59
2022/05/08 10:00:07;;;;;;;14.35;3.53;;;12.90;99.90;;;;;;5069758;28;20051;-59
2022/05/08 10:02:34;;;;;;;9.77;2.25;;;12.90;99.90;;;;;;5029490;28;20044;-59
2022/05/08 10:05:00;;;;;;;9.02;3.03;;;12.80;99.90;;;;;;5053943;28;20051;-58
2022/05/08 10:07:27;;;;;;;9.10;2.60;;;12.80;99.90;;;;;;5062041;28;20047;-58
2022/05/08 10:15:32;;;;;;;9.40;2.67;;;13.10;99.90;;;;;;5059906;28;20137;-59
2022/05/08 10:18:31;;;;;;;8.55;2.63;;;13.10;99.90;;;;;;5040633;28;20131;-59
2022/05/08 10:21:03;;;;;;;11.45;2.63;;;13.20;99.90;;;;;;5050393;28;20116;-59
2022/05/08 10:23:41;;;;;;;7.10;2.20;;;13.40;99.90;;;;;;5051069;28;20102;-59
2022/05/08 10:26:15;;;;;;;7.75;2.45;;;13.40;99.90;;;;;;5043289;28;20400;-59
2022/05/08 10:29:05;;;;;;;11.90;2.92;;;13.30;99.90;;;;;;5052283;28;20498;-59
2022/05/08 10:31:48;;;;;;;6.97;2.35;;;13.30;99.90;;;;;;5037538;28;20044;-59
2022/05/08 10:34:15;;;;;;;13.00;3.00;;;13.40;99.90;;;;;;5066844;28;20064;-59
2022/05/08 10:37:12;;;;;;;10.73;2.30;;;13.40;99.90;;;;;;5052855;28;20045;-59
2022/05/08 10:39:38;;;;;;;11.20;2.70;;;13.40;99.90;;;;;;5047529;28;20048;-59
2022/05/08 10:42:04;;;;;;;8.75;2.40;;;13.20;99.90;;;;;;5064011;28;20044;-58
2022/05/08 10:44:37;;;;;;;9.23;2.90;;;13.20;99.90;;;;;;5050670;28;20041;-59
2022/05/08 10:47:34;;;;;;;5.88;2.10;;;13.30;99.90;;;;;;5061451;28;20520;-59
2022/05/08 10:50:04;;;;;;;9.07;2.60;;;13.30;99.90;;;;;;5040603;28;20501;-59
2022/05/08 10:52:31;;;;;;;12.73;2.83;;;13.30;99.90;;;;;;5046558;28;20043;-59
2022/05/08 10:55:01;;;;;;;8.93;2.05;;;13.40;99.90;;;;;;5051991;28;20032;-59
2022/05/08 10:57:37;;;;;;;10.50;2.72;;;13.50;99.90;;;;;;5045137;28;20379;-59
2022/05/08 11:00:05;;;;;;;8.25;2.72;;;13.50;99.90;;;;;;5054696;28;20537;-59
2022/05/08 11:02:43;;;;;;;8.02;2.85;;;13.50;99.90;;;;;;5048800;28;20112;-59
2022/05/08 11:05:11;;;;;;;8.00;2.33;;;13.60;99.90;;;;;;5044634;28;20064;-59
2022/05/08 11:07:39;;;;;;;8.00;2.78;;;13.60;99.90;;;;;;5057084;28;20051;-59
2022/05/08 11:10:29;;;;;;;8.57;2.63;;;13.70;99.90;;;;;;5036894;28;20045;-59
2022/05/08 11:13:04;;;;;;;10.70;3.50;;;13.80;99.90;;;;;;5036777;28;20083;-59
2022/05/08 11:15:32;;;;;;;7.95;2.78;;;13.70;99.90;;;;;;5050106;28;20642;-59
2022/05/08 11:18:12;;;;;;;12.18;3.40;;;13.60;99.90;;;;;;5038092;28;20053;-58
2022/05/08 11:20:45;;;;;;;8.48;2.40;;;13.70;99.90;;;;;;5039760;28;20051;-59
2022/05/08 11:23:15;;;;;;;8.63;2.47;;;13.80;99.00;;;;;;5049354;28;20093;-59
2022/05/08 11:25:45;;;;;;;11.13;2.70;;;14.60;99.90;;;;;;5068675;28;20168;-59
2022/05/08 11:28:16;;;;;;;9.27;2.42;;;14.50;99.90;;;;;;5067376;28;20040;-59
2022/05/08 11:30:42;;;;;;;7.40;2.45;;;14.50;99.90;;;;;;5051537;28;20063;-59
2022/05/08 11:36:06;;;;;;;13.27;2.47;;;14.60;99.90;;;;;;5053268;28;20045;-59
2022/05/08 11:38:45;;;;;;;8.32;2.55;;;14.40;99.90;;;;;;5054210;28;20124;-59
2022/05/08 11:41:25;;;;;;;9.07;2.55;;;14.20;99.50;;;;;;5053135;28;20037;-59
2022/05/08 11:43:52;;;;;;;15.23;3.28;;;14.20;99.80;;;;;;5054292;28;20179;-59
2022/05/08 11:46:38;;;;;;;10.77;3.33;;;14.20;99.70;;;;;;5069814;28;20045;-60
2022/05/08 11:49:18;;;;;;;9.07;2.83;;;14.20;99.80;;;;;;5052567;28;20060;-59
2022/05/08 11:51:48;;;;;;;14.23;3.78;;;14.30;99.40;;;;;;5054267;28;20047;-59
2022/05/08 11:54:17;;;;;;;8.50;2.47;;;14.30;99.90;;;;;;5071433;28;20152;-59
2022/05/08 11:56:43;;;;;;;9.90;3.08;;;14.40;99.00;;;;;;5071571;28;20093;-58
2022/05/08 11:59:17;;;;;;;12.73;2.63;;;14.40;99.20;;;;;;5046913;28;20060;-59
2022/05/08 12:01:53;;;;;;;12.23;3.13;;;14.50;98.30;;;;;;5051418;28;20041;-59
2022/05/08 12:04:33;;;;;;;7.57;2.45;;;14.40;98.50;;;;;;5049744;28;20063;-60
2022/05/08 12:07:12;;;;;;;8.20;2.60;;;14.50;99.30;;;;;;5067399;28;20052;-59
2022/05/08 12:09:48;;;;;;;8.95;2.80;;;14.40;97.70;;;;;;5053511;28;20124;-60
2022/05/08 12:12:33;;;;;;;13.00;3.22;;;14.40;99.00;;;;;;5046991;28;20033;-60
2022/05/08 12:15:02;;;;;;;13.77;2.90;;;;;;;;;;5052599;28;20045;-59
2022/05/08 12:17:30;;;;;;;11.77;3.47;;;14.50;98.70;;;;;;5062611;28;20302;-60
2022/05/08 12:19:57;;;;;;;10.13;3.00;;;14.50;99.20;;;;;;5053106;28;20039;-60
2022/05/08 12:22:25;;;;;;;12.27;2.80;;;14.50;98.90;;;;;;5051750;28;20112;-60
2022/05/08 12:24:55;;;;;;;9.45;2.65;;;14.60;98.90;;;;;;5048542;28;20056;-61
2022/05/08 12:27:21;;;;;;;11.63;3.13;;;14.70;98.10;;;;;;5049993;28;20053;-61
2022/05/08 12:29:48;;;;;;;8.45;2.08;;;14.70;97.80;;;;;;5050227;28;20048;-60
2022/05/08 12:32:14;;;;;;;10.65;2.95;;;14.60;98.10;;;;;;5051906;28;20135;-59
2022/05/08 12:34:41;;;;;;;8.48;2.90;;;14.60;97.80;;;;;;5070337;28;20060;-58
2022/05/08 12:37:08;;;;;;;9.18;2.72;;;14.70;96.60;;;;;;5070031;28;20045;-59
2022/05/08 12:39:34;;;;;;;7.05;2.60;;;14.80;96.50;;;;;;5071360;28;20377;-60
2022/05/08 12:42:00;;;;;;;11.05;3.38;;;14.70;95.60;;;;;;5070769;28;20036;-60
2022/05/08 12:44:25;;;;;;;11.02;2.38;;;14.70;97.10;;;;;;5069957;28;20033;-60
2022/05/08 12:46:51;;;;;;;8.65;2.70;;;14.70;97.80;;;;;;5068855;28;20044;-60
2022/05/08 12:49:17;;;;;;;13.73;2.83;;;14.80;98.20;;;;;;5070377;28;20040;-60
2022/05/08 12:51:45;;;;;;;10.05;2.88;;;14.90;98.10;;;;;;5051963;28;20421;-60
2022/05/08 12:54:11;;;;;;;7.90;2.55;;;14.90;98.10;;;;;;5070469;28;20048;-59
2022/05/08 12:56:37;;;;;;;10.82;2.70;;;14.80;98.00;;;;;;5070653;28;20573;-59
2022/05/08 13:01:51;;;;;;;16.30;2.60;;;;;;;;;;5052759;28;20071;-59
2022/05/08 13:04:17;;;;;;;9.85;3.13;;;;;;;;;;5070205;28;20041;-59
2022/05/08 13:06:43;;;;;;;9.65;2.33;;;;;;;;;;5069770;28;20048;-60
2022/05/08 13:09:10;;;;;;;11.73;3.13;;;;;;;;;;5051811;28;20465;-60
2022/05/08 13:11:36;;;;;;;8.05;2.63;;;15.50;99.90;;;;;;5052618;28;20124;-60
2022/05/08 13:14:03;;;;;;;10.55;3.03;;;16.10;99.90;;;;;;5069230;28;20040;-60
2022/05/08 13:16:29;;;;;;;10.13;2.30;;;15.80;99.90;;;;;;5051464;28;20086;-60
2022/05/08 13:18:55;;;;;;;14.77;2.90;;;16.00;99.90;;;;;;5052091;28;20036;-60
2022/05/08 13:21:25;;;;;;;10.75;2.60;;;;;;;;;;5050423;28;20497;-60
2022/05/08 13:23:50;;;;;;;9.65;3.30;;;15.30;99.90;;;;;;5070145;28;20044;-59
2022/05/08 13:26:16;;;;;;;9.43;2.83;;;15.50;99.40;;;;;;5069562;28;20042;-59
2022/05/08 13:28:42;;;;;;;13.85;3.15;;;15.30;99.90;;;;;;5051410;28;20048;-59
2022/05/08 13:31:07;;;;;;;8.38;2.40;;;15.60;99.90;;;;;;5051514;28;20044;-59
2022/05/08 13:33:34;;;;;;;13.80;2.60;;;15.50;99.70;;;;;;5050280;28;20568;-59
2022/05/08 13:36:00;;;;;;;9.88;2.55;;;15.90;99.00;;;;;;5069714;28;20136;-59
2022/05/08 13:38:27;;;;;;;10.82;2.42;;;15.50;98.40;;;;;;5051495;28;20058;-59
2022/05/08 13:40:57;;;;;;;7.70;2.20;;;15.60;98.20;;;;;;5050433;28;20033;-61
2022/05/08 13:43:23;;;;;;;12.52;2.75;;;15.90;98.60;;;;;;5062712;28;20037;-59
2022/05/08 13:45:53;;;;;;;9.65;2.83;;;15.90;98.80;;;;;;5068348;28;20032;-59
2022/05/08 13:48:20;;;;;;;10.73;2.78;;;15.70;98.50;;;;;;5051140;28;20040;-59
2022/05/08 13:50:47;;;;;;;12.32;3.05;;;15.60;99.30;;;;;;5035735;28;20048;-59